METAR Data
IDs: Format: Raw Decoded Include TAF

Data at: 0109 UTC 01 Mar 2021

LFOA 010100Z AUTO 08009KT CAVOK 04/02 Q1027